Time;durP1;ratioP1;P1;durP2;ratioP2;P2;SDS_P1;SDS_P2;PMS_P1;PMS_P2;Temp;Humidity;BMP_temperature;BMP_pressure;BME280_temperature;BME280_humidity;BME280_pressure;Samples;Min_cycle;Max_cycle;Signal;HPM_P1;HPM_P2
2023/11/13 00:00:07;;;;;;;5.00;4.50;;;;;;;;;;5061335;28;20216;-55
2023/11/13 00:02:33;;;;;;;7.73;4.90;;;;;;;;;;5062239;28;20229;-54
2023/11/13 00:04:59;;;;;;;7.47;4.77;;;;;;;;;;5067981;28;20192;-54
2023/11/13 00:07:25;;;;;;;4.93;4.40;;;;;;;;;;5068792;28;20172;-54
2023/11/13 00:09:51;;;;;;;7.27;4.93;;;;;;;;;;5067646;28;20636;-54
2023/11/13 00:12:17;;;;;;;5.60;4.40;;;;;;;;;;5069226;28;20188;-54
2023/11/13 00:14:43;;;;;;;6.23;5.17;;;;;;;;;;5068636;28;20620;-55
2023/11/13 00:17:09;;;;;;;5.07;4.57;;;;;;;;;;5065040;28;20184;-54
2023/11/13 00:19:37;;;;;;;5.50;4.90;;;;;;;;;;5068371;28;20223;-54
2023/11/13 00:22:04;;;;;;;5.87;4.60;;;;;;;;;;5067873;28;20177;-55
2023/11/13 00:24:30;;;;;;;7.00;4.97;;;;;;;;;;5067659;28;20202;-55
2023/11/13 00:26:56;;;;;;;5.43;4.73;;;;;;;;;;5069219;28;20226;-55
2023/11/13 00:29:22;;;;;;;7.67;5.03;;;;;;;;;;5066356;28;20640;-55
2023/11/13 00:31:48;;;;;;;8.60;4.73;;;;;;;;;;5067188;28;20224;-54
2023/11/13 00:34:15;;;;;;;6.00;4.47;;;;;;;;;;5066054;28;20184;-55
2023/11/13 00:36:41;;;;;;;8.63;5.03;;;;;;;;;;5067655;28;20184;-54
2023/11/13 00:39:10;;;;;;;6.00;4.43;;;;;;;;;;5067860;28;20204;-56
2023/11/13 00:41:37;;;;;;;5.53;4.80;;;;;;;;;;5067220;28;20211;-54
2023/11/13 00:44:04;;;;;;;5.30;4.47;;;;;;;;;;5069056;28;20399;-54
2023/11/13 00:46:30;;;;;;;7.27;4.57;;;;;;;;;;5068101;28;20242;-54
2023/11/13 00:48:56;;;;;;;5.13;4.50;;;;;;;;;;5067910;28;20644;-54
2023/11/13 00:51:22;;;;;;;8.33;4.73;;;;;;;;;;5066532;28;20215;-54
2023/11/13 00:53:48;;;;;;;4.83;4.33;;;;;;;;;;5067039;28;20550;-54
2023/11/13 00:56:14;;;;;;;4.93;3.80;;;;;;;;;;5066472;28;20169;-54
2023/11/13 00:58:40;;;;;;;4.53;4.07;;;;;;;;;;5067117;28;20219;-54
2023/11/13 01:01:07;;;;;;;5.23;4.70;;;;;;;;;;5065565;28;20176;-55
2023/11/13 01:03:33;;;;;;;5.53;4.53;;;;;;;;;;5069365;28;20264;-55
2023/11/13 01:05:59;;;;;;;6.30;4.20;;;;;;;;;;5067354;28;20271;-55
2023/11/13 01:08:26;;;;;;;5.43;4.03;;;;;;;;;;5067714;28;20169;-56
2023/11/13 01:10:52;;;;;;;4.40;4.00;;;;;;;;;;5067598;28;20164;-55
2023/11/13 01:13:19;;;;;;;5.10;4.10;;;;;;;;;;5066857;28;20687;-55
2023/11/13 01:15:45;;;;;;;6.13;4.20;;;;;;;;;;5067973;28;20180;-55
2023/11/13 01:18:13;;;;;;;5.27;4.07;;;;;;;;;;5068325;28;20183;-55
2023/11/13 01:20:39;;;;;;;4.23;3.87;;;;;;;;;;5065732;28;20313;-55
2023/11/13 01:23:05;;;;;;;4.30;3.90;;;;;;;;;;5065035;28;20187;-55
2023/11/13 01:25:31;;;;;;;13.93;5.10;;;;;;;;;;5067202;28;20183;-55
2023/11/13 01:27:57;;;;;;;7.17;4.03;;;;;;;;;;5066640;28;20252;-55
2023/11/13 01:30:23;;;;;;;5.63;4.13;;;;;;;;;;5064175;28;21656;-55
2023/11/13 01:32:49;;;;;;;5.17;4.10;;;;;;;;;;5065650;28;20227;-55
2023/11/13 01:35:15;;;;;;;7.13;4.00;;;;;;;;;;5066700;28;20188;-55
2023/11/13 01:37:43;;;;;;;4.50;4.10;;;;;;;;;;5068045;28;20180;-55
2023/11/13 01:40:10;;;;;;;5.27;4.30;;;;;;;;;;5064028;28;20196;-55
2023/11/13 01:42:36;;;;;;;3.80;3.50;;;;;;;;;;5067662;28;20180;-55
2023/11/13 01:45:02;;;;;;;5.63;4.03;;;;;;;;;;5067162;28;20659;-55
2023/11/13 01:47:29;;;;;;;4.30;3.90;;;;;;;;;;5067783;28;20200;-55
2023/11/13 01:49:55;;;;;;;4.33;3.40;;;;;;;;;;5067955;28;20215;-55
2023/11/13 01:52:22;;;;;;;4.37;3.97;;;;;;;;;;5065096;28;20636;-55
2023/11/13 01:54:48;;;;;;;4.70;3.90;;;;;;;;;;5067572;28;20180;-55
2023/11/13 01:57:14;;;;;;;4.13;3.67;;;;;;;;;;5066699;28;20184;-55
2023/11/13 01:59:41;;;;;;;4.93;3.63;;;;;;;;;;5063075;28;20216;-55
2023/11/13 02:02:08;;;;;;;3.83;3.07;;;;;;;;;;5064601;28;20275;-55
2023/11/13 02:04:34;;;;;;;4.57;3.23;;;;;;;;;;5066405;28;20246;-55
2023/11/13 02:07:00;;;;;;;5.10;3.17;;;;;;;;;;5064439;28;20177;-55
2023/11/13 02:09:27;;;;;;;4.80;3.67;;;;;;;;;;5064793;28;20265;-54
2023/11/13 02:11:53;;;;;;;4.30;3.10;;;;;;;;;;5068747;28;20184;-54
2023/11/13 02:14:19;;;;;;;4.00;3.20;;;;;;;;;;5065758;28;20583;-54
2023/11/13 02:16:46;;;;;;;3.90;3.43;;;;;;;;;;5068505;28;20535;-55
2023/11/13 02:19:17;;;;;;;4.07;3.50;;;;;;;;;;5067132;28;20214;-54
2023/11/13 02:21:44;;;;;;;3.13;2.83;;;;;;;;;;5064475;28;20188;-55
2023/11/13 02:24:10;;;;;;;6.20;3.63;;;;;;;;;;5067492;28;20280;-54
2023/11/13 02:26:36;;;;;;;6.30;3.60;;;;;;;;;;5066659;28;20214;-54
2023/11/13 02:29:02;;;;;;;5.10;3.97;;;;;;;;;;5069784;28;20227;-54
2023/11/13 02:31:28;;;;;;;4.60;3.13;;;;;;;;;;5065531;28;20350;-55
2023/11/13 02:33:54;;;;;;;3.87;3.20;;;;;;;;;;5064768;28;20720;-54
2023/11/13 02:36:20;;;;;;;3.97;3.30;;;;;;;;;;5063923;28;20311;-55
2023/11/13 02:38:47;;;;;;;3.90;3.23;;;;;;;;;;5066303;28;20295;-55
2023/11/13 02:41:13;;;;;;;3.67;2.97;;;;;;;;;;5063935;28;20176;-54
2023/11/13 02:43:40;;;;;;;4.97;3.17;;;;;;;;;;5069103;28;20184;-55
2023/11/13 02:46:06;;;;;;;4.13;2.90;;;;;;;;;;5070256;28;22344;-54
2023/11/13 02:48:34;;;;;;;3.50;2.97;;;;;;;;;;5070349;28;20309;-55
2023/11/13 02:51:00;;;;;;;4.97;3.73;;;;;;;;;;5069889;28;20183;-54
2023/11/13 02:53:26;;;;;;;2.90;2.60;;;;;;;;;;5052670;28;20740;-54
2023/11/13 02:55:52;;;;;;;5.07;3.40;;;;;;;;;;5070635;28;20181;-54
2023/11/13 02:58:19;;;;;;;3.70;3.00;;;;;;;;;;5070265;28;20204;-54
2023/11/13 03:00:46;;;;;;;5.10;3.30;;;;;;;;;;5067366;28;20200;-55
2023/11/13 03:03:12;;;;;;;4.10;3.10;;;;;;;;;;5068372;28;20180;-54
2023/11/13 03:05:39;;;;;;;5.70;3.00;;;;;;;;;;5065826;28;20168;-54
2023/11/13 03:08:05;;;;;;;3.77;3.00;;;;;;;;;;5068772;28;20180;-55
2023/11/13 03:10:31;;;;;;;3.80;3.40;;;;;;;;;;5074023;28;20516;-54
2023/11/13 03:12:58;;;;;;;3.37;2.97;;;;;;;;;;5075032;28;20180;-54
2023/11/13 03:15:24;;;;;;;3.20;2.90;;;;;;;;;;5073354;28;20563;-54
2023/11/13 03:17:51;;;;;;;3.47;3.17;;;;;;;;;;5062740;28;20187;-54
2023/11/13 03:20:17;;;;;;;4.97;3.17;;;;;;;;;;5069698;28;20201;-53
2023/11/13 03:22:43;;;;;;;5.03;3.53;;;;;;;;;;5069369;28;20640;-54
2023/11/13 03:25:11;;;;;;;3.40;3.07;;;;;;;;;;5069201;28;20180;-53
2023/11/13 03:27:37;;;;;;;3.83;2.67;;;;;;;;;;5068447;28;20708;-54
2023/11/13 03:30:03;;;;;;;3.13;2.83;;;;;;;;;;5069422;28;20267;-55
2023/11/13 03:32:30;;;;;;;2.70;2.50;;;;;;;;;;5069813;28;20232;-53
2023/11/13 03:34:56;;;;;;;6.23;3.00;;;;;;;;;;5068996;28;20185;-53
2023/11/13 03:37:23;;;;;;;3.07;2.77;;;;;;;;;;5067396;28;20208;-54
2023/11/13 03:39:49;;;;;;;4.57;3.17;;;;;;;;;;5068575;28;20279;-54
2023/11/13 03:42:15;;;;;;;3.47;3.20;;;;;;;;;;5071321;28;20934;-54
2023/11/13 03:44:41;;;;;;;4.10;2.70;;;;;;;;;;5068707;28;20187;-54
2023/11/13 03:47:08;;;;;;;3.80;2.80;;;;;;;;;;5069965;28;20184;-54
2023/11/13 03:49:34;;;;;;;3.70;2.70;;;;;;;;;;5067917;28;20179;-53
2023/11/13 03:52:00;;;;;;;3.07;2.73;;;;;;;;;;5068480;28;20279;-54
2023/11/13 03:54:26;;;;;;;4.80;3.60;;;;;;;;;;5069030;28;20287;-53
2023/11/13 03:56:52;;;;;;;3.17;2.87;;;;;;;;;;5051290;28;20191;-54
2023/11/13 03:59:18;;;;;;;3.23;2.93;;;;;;;;;;5066053;28;20208;-54
2023/11/13 04:01:47;;;;;;;3.20;2.70;;;;;;;;;;5067465;28;20550;-53
2023/11/13 04:04:13;;;;;;;3.20;2.90;;;;;;;;;;5069001;28;20707;-55
2023/11/13 04:06:39;;;;;;;3.23;2.50;;;;;;;;;;5068436;28;20187;-54
2023/11/13 04:09:06;;;;;;;3.17;2.87;;;;;;;;;;5067149;28;20273;-54
2023/11/13 04:11:32;;;;;;;3.97;3.57;;;;;;;;;;5051466;28;20683;-54
2023/11/13 04:13:58;;;;;;;3.93;3.20;;;;;;;;;;5066267;28;20224;-55
2023/11/13 04:16:24;;;;;;;3.90;2.97;;;;;;;;;;5069021;28;20177;-54
2023/11/13 04:18:50;;;;;;;3.67;3.23;;;;;;;;;;5068735;28;20215;-54
2023/11/13 04:21:16;;;;;;;2.57;2.37;;;;;;;;;;5067404;28;20184;-53
2023/11/13 04:23:42;;;;;;;3.13;2.73;;;;;;;;;;5066626;28;20686;-53
2023/11/13 04:26:09;;;;;;;3.40;2.70;;;;;;;;;;5067412;28;20176;-52
2023/11/13 04:28:35;;;;;;;2.97;2.70;;;;;;;;;;5068620;28;20658;-53
2023/11/13 04:31:02;;;;;;;4.30;3.00;;;;;;;;;;5066426;28;20220;-56
2023/11/13 04:33:28;;;;;;;3.77;3.03;;;;;;;;;;5066013;28;20180;-56
2023/11/13 04:35:54;;;;;;;3.33;2.50;;;;;;;;;;5067580;28;20222;-56
2023/11/13 04:38:20;;;;;;;3.67;2.80;;;;;;;;;;5067324;28;20172;-56
2023/11/13 04:40:47;;;;;;;3.10;2.80;;;;;;;;;;5068815;28;20205;-56
2023/11/13 04:43:13;;;;;;;2.97;2.70;;;;;;;;;;5069386;28;20233;-55
2023/11/13 04:45:39;;;;;;;3.63;2.97;;;;;;;;;;5067041;28;20264;-56
2023/11/13 04:48:06;;;;;;;3.23;2.77;;;;;;;;;;5067747;28;20172;-55
2023/11/13 04:50:32;;;;;;;3.23;2.97;;;;;;;;;;5068065;28;20234;-56
2023/11/13 04:52:58;;;;;;;4.17;2.87;;;;;;;;;;5068745;28;20268;-56
2023/11/13 04:55:24;;;;;;;3.10;2.80;;;;;;;;;;5067444;28;21950;-56
2023/11/13 04:57:50;;;;;;;3.43;3.13;;;;;;;;;;5067650;28;20200;-56
2023/11/13 05:00:16;;;;;;;3.23;3.03;;;;;;;;;;5066228;28;20295;-56
2023/11/13 05:02:42;;;;;;;3.07;2.80;;;;;;;;;;5066968;28;20172;-56
2023/11/13 05:05:10;;;;;;;3.27;2.97;;;;;;;;;;5065915;28;20177;-56
2023/11/13 05:07:36;;;;;;;3.23;2.93;;;;;;;;;;5070026;28;20644;-56
2023/11/13 05:10:03;;;;;;;3.33;3.07;;;;;;;;;;5067051;28;20248;-56
2023/11/13 05:12:30;;;;;;;2.93;2.73;;;;;;;;;;5066428;28;20181;-56
2023/11/13 05:14:56;;;;;;;3.33;3.03;;;;;;;;;;5068581;28;20192;-56
2023/11/13 05:17:22;;;;;;;3.43;3.00;;;;;;;;;;5075823;28;20185;-56
2023/11/13 05:19:48;;;;;;;4.17;3.10;;;;;;;;;;5058734;28;22128;-56
2023/11/13 05:22:14;;;;;;;3.73;3.17;;;;;;;;;;5068266;28;20199;-56
2023/11/13 05:24:41;;;;;;;3.50;3.13;;;;;;;;;;5066150;28;20183;-56
2023/11/13 05:27:07;;;;;;;4.00;3.63;;;;;;;;;;5070087;28;20245;-56
2023/11/13 05:29:33;;;;;;;3.83;3.53;;;;;;;;;;5067220;28;20215;-56
2023/11/13 05:31:59;;;;;;;3.27;2.97;;;;;;;;;;5066774;28;20225;-56
2023/11/13 05:34:25;;;;;;;3.23;3.00;;;;;;;;;;5064640;28;20176;-56
2023/11/13 05:36:51;;;;;;;3.80;3.50;;;;;;;;;;5065816;28;20259;-56
2023/11/13 05:39:17;;;;;;;3.60;3.30;;;;;;;;;;5065243;28;20208;-56
2023/11/13 05:41:44;;;;;;;3.50;3.20;;;;;;;;;;5067516;28;20544;-56
2023/11/13 05:44:10;;;;;;;3.47;3.17;;;;;;;;;;5066873;28;20640;-56
2023/11/13 05:46:38;;;;;;;4.33;3.93;;;;;;;;;;5061802;28;20208;-56
2023/11/13 05:49:05;;;;;;;4.07;3.67;;;;;;;;;;5065749;28;20639;-56
2023/11/13 05:51:31;;;;;;;3.47;3.10;;;;;;;;;;5048755;28;20180;-56
2023/11/13 05:53:57;;;;;;;3.83;3.47;;;;;;;;;;5064194;28;20200;-56
2023/11/13 05:56:23;;;;;;;3.80;3.50;;;;;;;;;;5066478;28;20176;-57
2023/11/13 05:58:49;;;;;;;4.73;3.90;;;;;;;;;;5066075;28;20317;-57
2023/11/13 06:01:18;;;;;;;4.10;3.70;;;;;;;;;;5066336;28;20184;-56
2023/11/13 06:03:44;;;;;;;4.33;4.03;;;;;;;;;;5068508;28;20486;-56
2023/11/13 06:06:14;;;;;;;5.57;4.50;;;;;;;;;;5060807;28;20184;-56
2023/11/13 06:08:41;;;;;;;4.47;4.07;;;;;;;;;;5066578;28;20707;-56
2023/11/13 06:11:07;;;;;;;5.50;4.40;;;;;;;;;;5066619;28;20188;-56
2023/11/13 06:13:35;;;;;;;5.30;4.80;;;;;;;;;;5066391;28;20188;-56
2023/11/13 06:16:02;;;;;;;4.70;4.30;;;;;;;;;;5066765;28;20184;-56
2023/11/13 06:18:28;;;;;;;6.73;5.27;;;;;;;;;;5067193;28;20281;-56
2023/11/13 06:20:55;;;;;;;5.03;4.57;;;;;;;;;;5067727;28;20205;-56
2023/11/13 06:23:23;;;;;;;5.13;4.70;;;;;;;;;;5068166;28;20691;-56
2023/11/13 06:25:49;;;;;;;5.83;5.07;;;;;;;;;;5067732;28;20177;-56
2023/11/13 06:28:15;;;;;;;5.27;4.77;;;;;;;;;;5070782;28;20633;-56
2023/11/13 06:30:45;;;;;;;6.07;5.47;;;;;;;;;;5069988;28;20172;-56
2023/11/13 06:33:11;;;;;;;5.97;5.37;;;;;;;;;;5070768;28;20259;-56
2023/11/13 06:35:38;;;;;;;6.00;5.40;;;;;;;;;;5068590;28;20263;-55
2023/11/13 06:38:04;;;;;;;6.83;6.07;;;;;;;;;;5066658;28;20674;-56
2023/11/13 06:40:30;;;;;;;9.23;6.53;;;;;;;;;;5071101;28;20276;-56
2023/11/13 06:42:56;;;;;;;8.13;6.70;;;;;;;;;;5071871;28;20184;-56
2023/11/13 06:45:22;;;;;;;9.13;6.70;;;;;;;;;;5070989;28;20184;-56
2023/11/13 06:47:50;;;;;;;9.27;7.13;;;;;;;;;;5052903;28;20532;-56
2023/11/13 06:50:17;;;;;;;9.27;7.23;;;;;;;;;;5068052;28;20228;-53
2023/11/13 06:52:43;;;;;;;7.70;6.93;;;;;;;;;;5069529;28;20176;-53
2023/11/13 06:55:13;;;;;;;9.77;6.77;;;;;;;;;;5070518;28;20672;-53
2023/11/13 06:57:40;;;;;;;7.93;7.10;;;;;;;;;;5064807;28;20355;-53
2023/11/13 07:00:09;;;;;;;8.33;7.20;;;;;;;;;;5067273;28;20215;-53
2023/11/13 07:02:39;;;;;;;9.13;7.53;;;;;;;;;;5065784;28;20180;-53
2023/11/13 07:05:07;;;;;;;8.73;7.82;;;;;;;;;;5064100;28;20507;-53
2023/11/13 07:07:33;;;;;;;8.17;7.00;;;;;;;;;;5068388;28;20188;-54
2023/11/13 07:10:01;;;;;;;10.30;7.40;;;;;;;;;;5058402;28;20544;-53
2023/11/13 07:12:29;;;;;;;10.70;7.00;;;;;;;;;;5055884;28;20173;-54
2023/11/13 07:14:57;;;;;;;11.77;7.40;;;;;;;;;;5057238;28;20527;-54
2023/11/13 07:17:23;;;;;;;10.13;6.63;;;;;;;;;;5069931;28;20172;-54
2023/11/13 07:19:50;;;;;;;6.93;6.00;;;;;;;;;;5068600;28;20235;-53
2023/11/13 07:22:17;;;;;;;7.60;5.80;;;;;;;;;;5070060;28;20716;-53
2023/11/13 07:24:43;;;;;;;7.60;6.80;;;;;;;;;;5068771;28;20207;-53
2023/11/13 07:27:12;;;;;;;6.87;6.17;;;;;;;;;;5069033;28;20169;-53
2023/11/13 07:29:38;;;;;;;13.07;7.20;;;;;;;;;;5068778;28;20193;-53
2023/11/13 07:32:04;;;;;;;8.23;6.30;;;;;;;;;;5069227;28;20223;-53
2023/11/13 07:34:32;;;;;;;7.53;6.27;;;;;;;;;;5067844;28;20724;-54
2023/11/13 07:36:58;;;;;;;5.97;5.23;;;;;;;;;;5067856;28;20823;-54
2023/11/13 07:39:27;;;;;;;8.60;6.13;;;;;;;;;;5064496;28;20205;-54
2023/11/13 07:42:00;;;;;;;7.80;6.00;;;;;;;;;;5065943;28;20176;-53
2023/11/13 07:44:26;;;;;;;7.43;6.07;;;;;;;;;;5066380;28;20263;-53
2023/11/13 07:46:55;;;;;;;8.17;5.90;;;;;;;;;;5068635;28;20628;-54
2023/11/13 07:49:21;;;;;;;9.53;5.97;;;;;;;;;;5069342;28;20714;-54
2023/11/13 07:51:47;;;;;;;8.67;5.37;;;;;;;;;;5067516;28;20680;-55
2023/11/13 07:54:13;;;;;;;9.97;5.40;;;;;;;;;;5069490;28;20184;-53
2023/11/13 07:56:39;;;;;;;9.53;5.33;;;;;;;;;;5068379;28;20193;-54
2023/11/13 07:59:07;;;;;;;9.97;5.80;;;;;;;;;;5066519;28;20207;-52
2023/11/13 08:01:37;;;;;;;6.60;5.20;;;;;;;;;;5068861;28;20188;-55
2023/11/13 08:04:07;;;;;;;8.23;4.80;;;;;;;;;;5071096;28;20173;-55
2023/11/13 08:06:33;;;;;;;6.50;5.00;;;;;;;;;;5066344;28;20540;-55
2023/11/13 08:08:59;;;;;;;7.43;5.20;;;;;;;;;;5069855;28;20180;-55
2023/11/13 08:11:25;;;;;;;6.50;4.73;;;;;;;;;;5069957;28;20168;-55
2023/11/13 08:13:51;;;;;;;5.33;4.83;;;;;;;;;;5070175;28;20180;-55
2023/11/13 08:16:18;;;;;;;9.37;5.57;;;;;;;;;;5069616;28;20518;-55
2023/11/13 08:18:44;;;;;;;8.83;4.73;;;;;;;;;;5069715;28;20180;-56
2023/11/13 08:21:10;;;;;;;6.37;3.80;;;;;;;;;;5068156;28;20592;-55
2023/11/13 08:23:36;;;;;;;7.13;4.30;;;;;;;;;;5070475;28;20607;-55
2023/11/13 08:26:04;;;;;;;4.97;4.07;;;;;;;;;;5074500;28;20195;-55
2023/11/13 08:28:31;;;;;;;5.43;4.20;;;;;;;;;;5065066;28;20184;-55
2023/11/13 08:30:58;;;;;;;4.00;3.60;;;;;;;;;;5065910;28;20572;-55
2023/11/13 08:33:24;;;;;;;4.43;3.90;;;;;;;;;;5068816;28;20656;-56
2023/11/13 08:35:51;;;;;;;5.57;4.27;;;;;;;;;;5065901;28;20258;-55
2023/11/13 08:38:17;;;;;;;6.20;4.10;;;;;;;;;;5063785;28;20666;-55
2023/11/13 08:40:44;;;;;;;5.37;4.43;;;;;;;;;;5064634;28;20535;-56
2023/11/13 08:43:13;;;;;;;8.33;4.50;;;;;;;;;;5067659;28;20224;-56
2023/11/13 08:45:43;;;;;;;7.07;4.37;;;;;;;;;;5067973;28;20271;-56
2023/11/13 08:48:10;;;;;;;10.23;5.20;;;;;;;;;;5067694;28;20176;-55
2023/11/13 08:50:37;;;;;;;5.80;4.53;;;;;;;;;;5065912;28;20183;-56
2023/11/13 08:53:05;;;;;;;8.27;4.47;;;;;;;;;;5061484;28;20750;-55
2023/11/13 08:55:31;;;;;;;5.93;4.63;;;;;;;;;;5067253;28;20173;-56
2023/11/13 08:57:57;;;;;;;5.50;3.93;;;;;;;;;;5067737;28;20231;-55
2023/11/13 09:00:28;;;;;;;8.20;5.00;;;;;;;;;;5066076;28;20223;-55
2023/11/13 09:02:58;;;;;;;4.37;3.23;;;;;;;;;;5066050;28;20173;-56
2023/11/13 09:05:26;;;;;;;5.00;4.10;;;;;;;;;;5066218;28;20256;-56
2023/11/13 09:07:55;;;;;;;7.33;4.20;;;;;;;;;;5066968;28;20189;-56
2023/11/13 09:10:26;;;;;;;5.27;3.97;;;;;;;;;;5067517;28;20653;-56
2023/11/13 09:12:52;;;;;;;4.03;3.63;;;;;;;;;;5067089;28;20218;-56
2023/11/13 09:15:18;;;;;;;4.13;3.73;;;;;;;;;;5067611;28;20522;-56
2023/11/13 09:17:45;;;;;;;5.37;3.63;;;;;;;;;;5067323;28;20172;-56
2023/11/13 09:20:15;;;;;;;6.73;4.10;;;;;;;;;;5067692;28;20206;-56
2023/11/13 09:22:44;;;;;;;6.37;3.60;;;;;;;;;;5067355;28;20245;-56
2023/11/13 09:25:14;;;;;;;6.60;4.13;;;;;;;;;;5062963;28;20535;-55
2023/11/13 09:27:44;;;;;;;4.27;3.77;;;;;;;;;;5066046;28;20712;-56
2023/11/13 09:30:10;;;;;;;3.57;3.27;;;;;;;;;;5064240;28;20545;-56
2023/11/13 09:32:40;;;;;;;8.37;4.03;;;;;;;;;;5066806;28;20733;-55
2023/11/13 09:35:18;;;;;;;3.90;3.50;;;;;;;;;;5063623;28;20173;-55
2023/11/13 09:37:44;;;;;;;5.20;3.30;;;;;;;;;;5064131;28;20520;-56
2023/11/13 09:40:14;;;;;;;8.27;3.77;;;;;;;;;;5066217;28;20211;-56
2023/11/13 09:42:42;;;;;;;3.77;3.37;;;;;;;;;;5066741;28;20180;-56
2023/11/13 09:45:08;;;;;;;3.13;2.83;;;;;;;;;;5066338;28;20183;-56
2023/11/13 09:47:36;;;;;;;3.40;3.10;;;;;;;;;;5066753;28;20184;-55
2023/11/13 09:50:10;;;;;;;2.93;2.57;;;;;;;;;;5065956;28;20196;-56
2023/11/13 09:52:36;;;;;;;4.70;2.63;;;;;;;;;;5065931;28;20581;-55
2023/11/13 09:55:03;;;;;;;4.27;2.67;;;;;;;;;;5065123;28;20531;-56
2023/11/13 09:57:29;;;;;;;3.37;2.80;;;;;;;;;;5057233;28;20367;-55
2023/11/13 09:59:56;;;;;;;6.70;3.13;;;;;;;;;;5068458;28;20253;-55
2023/11/13 10:02:25;;;;;;;4.70;2.63;;;;;;;;;;5068076;28;20172;-56
2023/11/13 10:04:54;;;;;;;6.30;2.73;;;;;;;;;;5067651;28;20183;-56
2023/11/13 10:07:20;;;;;;;5.87;3.23;;;;;;;;;;5068404;28;20261;-55
2023/11/13 10:10:00;;;;;;;4.40;3.47;;;;;;;;;;5067743;28;20172;-56
2023/11/13 10:12:27;;;;;;;5.37;2.00;;;;;;;;;;5068376;28;20188;-56
2023/11/13 10:15:12;;;;;;;2.93;1.93;;;;;;;;;;5068455;28;20652;-56
2023/11/13 10:17:42;;;;;;;4.10;1.90;;;;;;;;;;5066352;28;20268;-55
2023/11/13 10:20:09;;;;;;;3.50;2.00;;;;;;;;;;5068645;28;20600;-55
2023/11/13 10:22:36;;;;;;;1.87;1.57;;;;;;;;;;5068116;28;20255;-56
2023/11/13 10:25:02;;;;;;;2.47;2.27;;;;;;;;;;5067234;28;20181;-56
2023/11/13 10:27:29;;;;;;;2.87;1.90;;;;;;;;;;5066179;28;20181;-56
2023/11/13 10:30:03;;;;;;;3.40;2.07;;;;;;;;;;5067460;28;20179;-56
2023/11/13 10:32:33;;;;;;;2.90;1.83;;;;;;;;;;5062267;28;20216;-56
2023/11/13 10:34:59;;;;;;;2.63;1.90;;;;;;;;;;5064131;28;20188;-56
2023/11/13 10:37:25;;;;;;;2.07;1.87;;;;;;;;;;5066083;28;20188;-56
2023/11/13 10:39:51;;;;;;;1.93;1.60;;;;;;;;;;5064821;28;20978;-56
2023/11/13 10:42:25;;;;;;;1.83;1.73;;;;;;;;;;5065485;28;20185;-56
2023/11/13 10:44:52;;;;;;;2.07;1.57;;;;;;;;;;5064629;28;20180;-56
2023/11/13 10:47:23;;;;;;;2.00;1.70;;;;;;;;;;5065163;28;20620;-57
2023/11/13 10:49:58;;;;;;;2.17;1.87;;;;;;;;;;5063907;28;20188;-56
2023/11/13 10:52:27;;;;;;;1.80;1.67;;;;;;;;;;5067338;28;20215;-56
2023/11/13 10:54:55;;;;;;;1.73;1.60;;;;;;;;;;5064182;28;20663;-56
2023/11/13 10:57:22;;;;;;;2.33;1.80;;;;;;;;;;5063410;28;20176;-56
2023/11/13 10:59:53;;;;;;;1.77;1.53;;;;;;;;;;5064735;28;20209;-56
2023/11/13 11:02:42;;;;;;;2.03;1.67;;;;;;;;;;5066437;28;20204;-56
2023/11/13 11:05:13;;;;;;;3.03;1.63;;;;;;;;;;5067667;28;20501;-56
2023/11/13 11:07:43;;;;;;;1.70;1.57;;;;;;;;;;5067864;28;20569;-56
2023/11/13 11:10:09;;;;;;;1.83;1.73;;;;;;;;;;5068549;28;20177;-56
2023/11/13 11:12:37;;;;;;;1.73;1.60;;;;;;;;;;5067827;28;20532;-56
2023/11/13 11:15:22;;;;;;;1.90;1.70;;;;;;;;;;5066710;28;20176;-57
2023/11/13 11:17:52;;;;;;;1.70;1.60;;;;;;;;;;5068891;28;20184;-56
2023/11/13 11:20:27;;;;;;;4.00;1.50;;;;;;;;;;5067830;28;20203;-57
2023/11/13 11:23:00;;;;;;;2.60;1.50;;;;;;;;;;5067242;28;20186;-56
2023/11/13 11:25:44;;;;;;;2.33;1.63;;;;;;;;;;5069095;28;20184;-56
2023/11/13 11:28:30;;;;;;;2.03;1.60;;;;;;;;;;5062037;28;20516;-56
2023/11/13 11:31:04;;;;;;;2.30;1.63;;;;;;;;;;5057541;28;20550;-56
2023/11/13 11:33:32;;;;;;;2.10;1.90;;;;;;;;;;5066431;28;20581;-56
2023/11/13 11:35:58;;;;;;;2.23;1.70;;;;;;;;;;5062196;28;20526;-56
2023/11/13 11:38:28;;;;;;;2.03;1.83;;;;;;;;;;5067008;28;20172;-56
2023/11/13 11:40:55;;;;;;;2.40;1.97;;;;;;;;;;5067445;28;20200;-56
2023/11/13 11:43:22;;;;;;;2.97;2.13;;;;;;;;;;5069819;28;20531;-57
2023/11/13 11:45:51;;;;;;;2.90;2.00;;;;;;;;;;5067148;28;20738;-56
2023/11/13 11:48:18;;;;;;;2.87;1.93;;;;;;;;;;5066948;28;20189;-57
2023/11/13 11:50:45;;;;;;;2.20;2.00;;;;;;;;;;5064429;28;20180;-57
2023/11/13 11:53:19;;;;;;;2.33;2.03;;;;;;;;;;5066106;28;20187;-56
2023/11/13 11:55:45;;;;;;;2.13;1.93;;;;;;;;;;5067998;28;20191;-56
2023/11/13 11:58:13;;;;;;;2.90;2.03;;;;;;;;;;5069886;28;20663;-56
2023/11/13 12:00:39;;;;;;;3.87;2.30;;;;;;;;;;5069009;28;20208;-57
2023/11/13 12:03:07;;;;;;;2.60;2.40;;;;;;;;;;5068848;28;20172;-57
2023/11/13 12:05:33;;;;;;;3.73;2.50;;;;;;;;;;5068798;28;20253;-56
2023/11/13 12:07:59;;;;;;;4.37;2.50;;;;;;;;;;5069365;28;20191;-57
2023/11/13 12:10:26;;;;;;;4.03;2.87;;;;;;;;;;5066712;28;20233;-56
2023/11/13 12:12:53;;;;;;;3.93;2.60;;;;;;;;;;5069144;28;20651;-56
2023/11/13 12:15:19;;;;;;;3.17;2.57;;;;;;;;;;5068655;28;20184;-57
2023/11/13 12:17:46;;;;;;;5.63;2.73;;;;;;;;;;5067608;28;20194;-56
2023/11/13 12:20:14;;;;;;;5.10;2.90;;;;;;;;;;5046251;28;20203;-56
2023/11/13 12:22:41;;;;;;;5.43;3.13;;;;;;;;;;5066839;28;20644;-57
2023/11/13 12:25:08;;;;;;;4.83;3.13;;;;;;;;;;5068052;28;20188;-56
2023/11/13 12:27:40;;;;;;;3.67;2.73;;;;;;;;;;5066719;28;20187;-56
2023/11/13 12:30:15;;;;;;;4.50;2.93;;;;;;;;;;5068166;28;20655;-57
2023/11/13 12:32:41;;;;;;;3.53;2.97;;;;;;;;;;5067830;28;20297;-56
2023/11/13 12:35:07;;;;;;;4.40;2.53;;;;;;;;;;5064685;28;20211;-56
2023/11/13 12:37:33;;;;;;;3.13;2.43;;;;;;;;;;5065989;28;20238;-56
2023/11/13 12:40:00;;;;;;;3.00;2.37;;;;;;;;;;5068223;28;20204;-56
2023/11/13 12:42:29;;;;;;;2.50;2.30;;;;;;;;;;5067825;28;20333;-54
2023/11/13 12:44:55;;;;;;;2.97;2.40;;;;;;;;;;5067431;28;20176;-55
2023/11/13 12:47:22;;;;;;;3.53;2.17;;;;;;;;;;5065012;28;20581;-54
2023/11/13 12:49:48;;;;;;;4.27;2.90;;;;;;;;;;5064376;28;20237;-54
2023/11/13 12:52:18;;;;;;;3.70;2.60;;;;;;;;;;5065180;28;20584;-53
2023/11/13 12:54:54;;;;;;;2.60;2.40;;;;;;;;;;5067179;28;20184;-54
2023/11/13 12:57:21;;;;;;;2.97;2.50;;;;;;;;;;5062534;28;20171;-54
2023/11/13 12:59:48;;;;;;;2.90;2.70;;;;;;;;;;5065937;28;20204;-54
2023/11/13 13:02:14;;;;;;;3.77;3.07;;;;;;;;;;5068005;28;20701;-54
2023/11/13 13:04:50;;;;;;;2.50;2.30;;;;;;;;;;5066246;28;20172;-53
2023/11/13 13:07:17;;;;;;;2.17;2.07;;;;;;;;;;5066501;28;20616;-53
2023/11/13 13:09:46;;;;;;;2.33;2.13;;;;;;;;;;5065769;28;20203;-54
2023/11/13 13:12:12;;;;;;;2.20;2.00;;;;;;;;;;5067917;28;20551;-53
2023/11/13 13:14:38;;;;;;;3.20;2.50;;;;;;;;;;5066291;28;20173;-54
2023/11/13 13:17:07;;;;;;;3.43;2.33;;;;;;;;;;5067596;28;20180;-53
2023/11/13 13:19:37;;;;;;;3.60;2.27;;;;;;;;;;5067107;28;20563;-53
2023/11/13 13:22:05;;;;;;;2.60;2.40;;;;;;;;;;5065754;28;20268;-54
2023/11/13 13:24:31;;;;;;;4.70;2.30;;;;;;;;;;5066453;28;20176;-54
2023/11/13 13:26:58;;;;;;;2.53;2.20;;;;;;;;;;5061766;28;20706;-55
2023/11/13 13:29:25;;;;;;;3.47;2.43;;;;;;;;;;5065314;28;20238;-54
2023/11/13 13:31:51;;;;;;;2.80;1.93;;;;;;;;;;5064487;28;20224;-55
2023/11/13 13:34:18;;;;;;;3.30;2.37;;;;;;;;;;5066409;28;20192;-54
2023/11/13 13:36:45;;;;;;;2.50;2.30;;;;;;;;;;5067298;28;20586;-54
2023/11/13 13:39:14;;;;;;;2.60;2.30;;;;;;;;;;5065736;28;20271;-54
2023/11/13 13:41:44;;;;;;;3.57;2.83;;;;;;;;;;5063002;28;20176;-54
2023/11/13 13:44:12;;;;;;;3.20;2.30;;;;;;;;;;5064461;28;20629;-53
2023/11/13 13:46:39;;;;;;;3.57;2.40;;;;;;;;;;5069236;28;20169;-54
2023/11/13 13:49:06;;;;;;;3.73;2.60;;;;;;;;;;5068533;28;20620;-54
2023/11/13 13:51:35;;;;;;;2.80;2.60;;;;;;;;;;5068352;28;20261;-56
2023/11/13 13:54:02;;;;;;;2.47;2.23;;;;;;;;;;5068873;28;20181;-55
2023/11/13 13:56:30;;;;;;;3.67;2.67;;;;;;;;;;5069251;28;20168;-55
2023/11/13 13:58:56;;;;;;;3.37;2.43;;;;;;;;;;5068650;28;20218;-55
2023/11/13 14:01:22;;;;;;;2.57;2.37;;;;;;;;;;5068812;28;20257;-55
2023/11/13 14:03:54;;;;;;;2.60;2.17;;;;;;;;;;5067943;28;20184;-56
2023/11/13 14:06:21;;;;;;;2.57;2.13;;;;;;;;;;5064546;28;20169;-55
2023/11/13 14:08:48;;;;;;;3.43;2.20;;;;;;;;;;5068489;28;20274;-55
2023/11/13 14:11:17;;;;;;;2.03;1.90;;;;;;;;;;5064339;28;20180;-56
2023/11/13 14:13:46;;;;;;;2.57;2.37;;;;;;;;;;5067890;28;20188;-56
2023/11/13 14:16:12;;;;;;;3.13;2.27;;;;;;;;;;5068522;28;20211;-55
2023/11/13 14:18:38;;;;;;;2.03;1.90;;;;;;;;;;5068669;28;20664;-55
2023/11/13 14:21:05;;;;;;;2.93;2.40;;;;;;;;;;5067932;28;20188;-55
2023/11/13 14:23:31;;;;;;;3.63;2.13;;;;;;;;;;5067916;28;20188;-55
2023/11/13 14:25:58;;;;;;;2.27;1.70;;;;;;;;;;5061869;28;20255;-55
2023/11/13 14:28:24;;;;;;;2.67;2.10;;;;;;;;;;5064181;28;20181;-55
2023/11/13 14:30:50;;;;;;;2.20;2.00;;;;;;;;;;5065021;28;20184;-55
2023/11/13 14:33:18;;;;;;;2.40;1.67;;;;;;;;;;5066856;28;20513;-55
2023/11/13 14:35:44;;;;;;;2.07;1.87;;;;;;;;;;5064666;28;20630;-55
2023/11/13 14:38:11;;;;;;;1.93;1.73;;;;;;;;;;5067259;28;20699;-54
2023/11/13 14:40:38;;;;;;;9.23;2.90;;;;;;;;;;5066834;28;20205;-55
2023/11/13 14:43:04;;;;;;;2.73;2.00;;;;;;;;;;5066920;28;20176;-55